Time;durP1;ratioP1;P1;durP2;ratioP2;P2;SDS_P1;SDS_P2;PMS_P1;PMS_P2;Temp;Humidity;BMP_temperature;BMP_pressure;BME280_temperature;BME280_humidity;BME280_pressure;Samples;Min_cycle;Max_cycle;Signal;HPM_P1;HPM_P2
2022/03/27 00:02:05;;;;;;;;;;;7.30;83.40;;;;;;5067413;28;19954;-76
2022/03/27 00:04:31;;;;;;;;;;;7.30;83.40;;;;;;5066962;28;19908;-77
2022/03/27 00:06:57;;;;;;;;;;;7.30;83.60;;;;;;5065515;28;19940;-76
2022/03/27 00:09:22;;;;;;;;;;;7.30;83.60;;;;;;5065129;28;19917;-74
2022/03/27 00:11:48;;;;;;;;;;;7.30;83.70;;;;;;5063577;28;19909;-74
2022/03/27 00:14:14;;;;;;;;;;;7.20;83.90;;;;;;5062735;28;19916;-74
2022/03/27 00:16:39;;;;;;;;;;;7.20;84.00;;;;;;5062518;28;19939;-74
2022/03/27 00:19:06;;;;;;;;;;;7.20;84.20;;;;;;5062325;28;19955;-75
2022/03/27 00:21:32;;;;;;;;;;;7.00;84.60;;;;;;5062166;28;19917;-74
2022/03/27 00:23:58;;;;;;;;;;;7.00;84.70;;;;;;5061857;28;19916;-75
2022/03/27 00:26:24;;;;;;;;;;;7.00;84.80;;;;;;5062001;28;19913;-75
2022/03/27 00:28:49;;;;;;;;;;;6.90;85.10;;;;;;5044712;28;19955;-76
2022/03/27 00:31:16;;;;;;;;;;;7.00;85.20;;;;;;5061220;28;19921;-75
2022/03/27 00:33:42;;;;;;;;;;;6.90;85.30;;;;;;5062408;28;19917;-74
2022/03/27 00:36:10;;;;;;;;;;;6.90;85.60;;;;;;5061196;28;19952;-74
2022/03/27 00:38:38;;;;;;;;;;;6.80;85.70;;;;;;5061043;28;19919;-75
2022/03/27 00:41:05;;;;;;;;;;;6.80;85.70;;;;;;5060594;28;19908;-74
2022/03/27 00:43:31;;;;;;;;;;;6.80;85.70;;;;;;5062227;28;19909;-74
2022/03/27 00:45:57;;;;;;;;;;;6.70;86.00;;;;;;5062282;28;19990;-73
2022/03/27 00:48:23;;;;;;;;;;;6.70;86.60;;;;;;5062113;28;19945;-74
2022/03/27 00:50:49;;;;;;;;;;;6.60;86.70;;;;;;5047408;28;19909;-74
2022/03/27 00:53:15;;;;;;;;;;;6.60;87.10;;;;;;5065053;28;20112;-74
2022/03/27 00:55:41;;;;;;;;;;;6.50;87.30;;;;;;5065799;28;19909;-74
2022/03/27 00:58:08;;;;;;;;;;;6.50;87.30;;;;;;5064860;28;19916;-74
2022/03/27 01:00:46;;;;;;;;;;;6.50;87.70;;;;;;5070323;28;19924;-74
2022/03/27 01:03:20;;;;;;;;;;;6.40;88.00;;;;;;5069648;28;19985;-74
2022/03/27 01:05:48;;;;;;;;;;;6.30;88.40;;;;;;5052822;28;19955;-74
2022/03/27 01:08:14;;;;;;;;;;;6.20;88.40;;;;;;5051561;28;19917;-74
2022/03/27 01:10:40;;;;;;;;;;;6.30;88.60;;;;;;5050535;28;19917;-74
2022/03/27 01:13:17;;;;;;;;;;;6.20;88.30;;;;;;5068209;28;20140;-73
2022/03/27 01:15:43;;;;;;;;;;;6.20;88.50;;;;;;5068621;28;19916;-73
2022/03/27 01:18:09;;;;;;;;;;;6.20;88.70;;;;;;5050769;28;19912;-73
2022/03/27 01:20:36;;;;;;;;;;;6.20;88.80;;;;;;5050349;28;19917;-74
2022/03/27 01:23:01;;;;;;;;;;;6.10;89.00;;;;;;5051054;28;19915;-74
2022/03/27 01:25:27;;;;;;;;;;;6.10;89.00;;;;;;5036995;28;19924;-74
2022/03/27 01:27:53;;;;;;;;;;;6.10;89.20;;;;;;5029874;28;19920;-73
2022/03/27 01:30:19;;;;;;;;;;;6.10;89.50;;;;;;5044338;28;19976;-73
2022/03/27 01:32:45;;;;;;;;;;;6.00;89.50;;;;;;5047356;28;19909;-73
2022/03/27 01:35:12;;;;;;;;;;;6.00;89.50;;;;;;5047515;28;19972;-73
2022/03/27 01:37:38;;;;;;;;;;;6.00;89.30;;;;;;5013528;28;20243;-73
2022/03/27 01:40:04;;;;;;;;;;;6.10;87.30;;;;;;5012391;28;19917;-73
2022/03/27 01:42:30;;;;;;;;;;;6.20;86.40;;;;;;5044500;28;19916;-72
2022/03/27 01:44:56;;;;;;;;;;;6.20;86.10;;;;;;5045980;28;19909;-73
2022/03/27 01:47:21;;;;;;;;;;;6.10;86.00;;;;;;5045809;28;19998;-73
2022/03/27 01:49:47;;;;;;;;;;;6.10;86.00;;;;;;5046261;28;19909;-73
2022/03/27 01:52:15;;;;;;;;;;;5.90;86.60;;;;;;5046260;28;19909;-73
2022/03/27 01:54:41;;;;;;;;;;;5.90;86.80;;;;;;5016245;28;20192;-74
2022/03/27 01:57:06;;;;;;;;;;;5.90;86.40;;;;;;5045710;28;19909;-73
2022/03/27 01:59:33;;;;;;;;;;;5.90;86.80;;;;;;5062424;28;19909;-73
2022/03/27 02:01:59;;;;;;;;;;;5.90;86.60;;;;;;5028793;28;19997;-74
2022/03/27 02:04:25;;;;;;;;;;;5.90;86.70;;;;;;5045503;28;20112;-74
2022/03/27 02:06:51;;;;;;;;;;;5.80;87.30;;;;;;5045648;28;19921;-74
2022/03/27 02:09:16;;;;;;;;;;;5.70;87.50;;;;;;5046630;28;19909;-74
2022/03/27 02:11:42;;;;;;;;;;;5.70;87.10;;;;;;5044902;28;19945;-74
2022/03/27 02:14:08;;;;;;;;;;;5.70;87.30;;;;;;5045255;28;19973;-74
2022/03/27 02:16:35;;;;;;;;;;;5.60;87.40;;;;;;5046394;28;19924;-74
2022/03/27 02:19:00;;;;;;;;;;;5.70;87.10;;;;;;5045078;28;20223;-74
2022/03/27 02:21:26;;;;;;;;;;;5.70;86.70;;;;;;5044823;28;19916;-74
2022/03/27 02:23:52;;;;;;;;;;;5.60;87.10;;;;;;5046101;28;19917;-75
2022/03/27 02:26:17;;;;;;;;;;;5.50;87.70;;;;;;5065458;28;20093;-74
2022/03/27 02:28:43;;;;;;;;;;;5.60;87.30;;;;;;5064952;28;20164;-74
2022/03/27 02:31:09;;;;;;;;;;;5.70;87.20;;;;;;5064261;28;19917;-74
2022/03/27 02:33:35;;;;;;;;;;;5.60;87.40;;;;;;5065673;28;20318;-74
2022/03/27 02:36:05;;;;;;;;;;;5.60;87.10;;;;;;5064729;28;19975;-74
2022/03/27 02:38:31;;;;;;;;;;;5.70;86.90;;;;;;5063638;28;19982;-76
2022/03/27 02:40:57;;;;;;;;;;;5.70;86.70;;;;;;5064293;28;19976;-75
2022/03/27 02:43:22;;;;;;;;;;;5.60;86.40;;;;;;5063598;28;19915;-74
2022/03/27 02:45:50;;;;;;;;;;;5.50;86.90;;;;;;5064422;28;19939;-74
2022/03/27 02:48:15;;;;;;;;;;;5.50;87.00;;;;;;5064072;28;19923;-74
2022/03/27 02:50:43;;;;;;;;;;;5.50;87.00;;;;;;5063749;28;19940;-75
2022/03/27 02:53:10;;;;;;;;;;;5.40;87.30;;;;;;5063926;28;19923;-76
2022/03/27 02:55:35;;;;;;;;;;;5.50;87.30;;;;;;5063834;28;19908;-74
2022/03/27 02:58:01;;;;;;;;;;;5.60;87.10;;;;;;5048417;28;19909;-75
2022/03/27 03:00:27;;;;;;;;;;;5.50;87.10;;;;;;5045949;28;20016;-75
2022/03/27 03:02:53;;;;;;;;;;;5.50;86.90;;;;;;5046186;28;19940;-74
2022/03/27 03:05:19;;;;;;;;;;;5.40;87.50;;;;;;5045968;28;19916;-75
2022/03/27 03:07:45;;;;;;;;;;;5.40;88.10;;;;;;5065536;28;19952;-73
2022/03/27 03:10:11;;;;;;;;;;;5.20;88.90;;;;;;5064262;28;19909;-75
2022/03/27 03:12:37;;;;;;;;;;;5.20;89.10;;;;;;5062878;28;19909;-75
2022/03/27 03:15:03;;;;;;;;;;;5.10;89.20;;;;;;5062440;28;19947;-74
2022/03/27 03:17:29;;;;;;;;;;;5.20;89.40;;;;;;5063751;28;19924;-75
2022/03/27 03:19:55;;;;;;;;;;;5.10;89.80;;;;;;5063492;28;19908;-75
2022/03/27 03:22:20;;;;;;;;;;;5.10;89.80;;;;;;5063204;28;19908;-75
2022/03/27 03:24:50;;;;;;;;;;;5.00;90.00;;;;;;5062628;28;19908;-75
2022/03/27 03:27:15;;;;;;;;;;;5.00;90.50;;;;;;5062965;28;19916;-75
2022/03/27 03:29:41;;;;;;;;;;;5.00;90.20;;;;;;5062046;28;19909;-75
2022/03/27 03:32:07;;;;;;;;;;;4.90;90.20;;;;;;5062876;28;19955;-74
2022/03/27 03:34:33;;;;;;;;;;;5.00;90.20;;;;;;5064721;28;19944;-74
2022/03/27 03:36:58;;;;;;;;;;;4.90;90.40;;;;;;5065496;28;19923;-74
2022/03/27 03:39:24;;;;;;;;;;;4.70;90.60;;;;;;5065844;28;20227;-74
2022/03/27 03:41:50;;;;;;;;;;;4.80;90.60;;;;;;5065126;28;19909;-74
2022/03/27 03:44:16;;;;;;;;;;;4.80;90.60;;;;;;5067074;28;19946;-74
2022/03/27 03:46:41;;;;;;;;;;;4.80;90.50;;;;;;5066478;28;19917;-74
2022/03/27 03:49:07;;;;;;;;;;;4.80;90.60;;;;;;5065512;28;19909;-74
2022/03/27 03:51:36;;;;;;;;;;;4.80;90.60;;;;;;5065861;28;20047;-74
2022/03/27 03:54:02;;;;;;;;;;;4.80;90.60;;;;;;5066492;28;19987;-74
2022/03/27 03:56:28;;;;;;;;;;;4.90;90.40;;;;;;5049165;28;19943;-74
2022/03/27 03:58:53;;;;;;;;;;;4.80;90.20;;;;;;5065176;28;19916;-74
2022/03/27 04:01:19;;;;;;;;;;;4.80;90.30;;;;;;5049142;28;19909;-74
2022/03/27 04:03:45;;;;;;;;;;;4.70;90.50;;;;;;5046831;28;20231;-74
2022/03/27 04:06:10;;;;;;;;;;;4.70;90.50;;;;;;5063808;28;19976;-74
2022/03/27 04:08:36;;;;;;;;;;;4.60;90.50;;;;;;5063226;28;20152;-75
2022/03/27 04:11:02;;;;;;;;;;;4.70;90.70;;;;;;5062004;28;19916;-75
2022/03/27 04:13:28;;;;;;;;;;;4.80;90.90;;;;;;5044788;28;19915;-75
2022/03/27 04:15:54;;;;;;;;;;;4.90;90.90;;;;;;5062430;28;20188;-75
2022/03/27 04:18:19;;;;;;;;;;;4.90;90.60;;;;;;5061306;28;19972;-75
2022/03/27 04:20:45;;;;;;;;;;;4.80;90.60;;;;;;5061295;28;20197;-75
2022/03/27 04:23:11;;;;;;;;;;;4.70;90.70;;;;;;5061596;28;19948;-75
2022/03/27 04:25:38;;;;;;;;;;;4.60;90.80;;;;;;5060868;28;19932;-75
2022/03/27 04:28:06;;;;;;;;;;;4.60;91.10;;;;;;5061814;28;19921;-75
2022/03/27 04:30:32;;;;;;;;;;;4.50;91.10;;;;;;5061164;28;19908;-76
2022/03/27 04:32:58;;;;;;;;;;;4.60;90.90;;;;;;5062208;28;19916;-75
2022/03/27 04:35:24;;;;;;;;;;;4.60;90.70;;;;;;5062139;28;19943;-75
2022/03/27 04:37:50;;;;;;;;;;;4.60;90.40;;;;;;5062551;28;19917;-74
2022/03/27 04:40:15;;;;;;;;;;;4.50;90.40;;;;;;5046439;28;19909;-75
2022/03/27 04:42:41;;;;;;;;;;;4.50;90.30;;;;;;5046339;28;19917;-76
2022/03/27 04:45:08;;;;;;;;;;;4.50;90.20;;;;;;5044956;28;19917;-75
2022/03/27 04:47:34;;;;;;;;;;;4.40;90.40;;;;;;5046255;28;20287;-75
2022/03/27 04:50:00;;;;;;;;;;;4.40;90.50;;;;;;5063410;28;19909;-75
2022/03/27 04:52:26;;;;;;;;;;;4.40;90.30;;;;;;5063911;28;19916;-75
2022/03/27 04:54:51;;;;;;;;;;;4.40;90.20;;;;;;5062649;28;19909;-73
2022/03/27 04:57:17;;;;;;;;;;;4.30;90.30;;;;;;5064911;28;19932;-73
2022/03/27 04:59:43;;;;;;;;;;;4.20;90.70;;;;;;5047887;28;20186;-74
2022/03/27 05:02:09;;;;;;;;;;;4.20;90.70;;;;;;5030156;28;19916;-73
2022/03/27 05:04:34;;;;;;;;;;;4.10;90.90;;;;;;5063569;28;20204;-74
2022/03/27 05:07:00;;;;;;;;;;;4.10;91.00;;;;;;5047031;28;19912;-74
2022/03/27 05:09:26;;;;;;;;;;;4.20;91.20;;;;;;5044333;28;20219;-76
2022/03/27 05:11:51;;;;;;;;;;;4.20;91.90;;;;;;5060024;28;19917;-75
2022/03/27 05:14:17;;;;;;;;;;;4.10;92.10;;;;;;5060843;28;19915;-75
2022/03/27 05:16:43;;;;;;;;;;;4.00;92.50;;;;;;5061859;28;19908;-75
2022/03/27 05:19:08;;;;;;;;;;;4.00;92.30;;;;;;5061925;28;20159;-74
2022/03/27 05:21:35;;;;;;;;;;;4.10;92.30;;;;;;5061633;28;19916;-74
2022/03/27 05:24:01;;;;;;;;;;;4.20;92.00;;;;;;5044169;28;19912;-73
2022/03/27 05:26:27;;;;;;;;;;;4.30;92.20;;;;;;5061971;28;19952;-74
2022/03/27 05:28:54;;;;;;;;;;;4.40;92.00;;;;;;5046658;28;20192;-74
2022/03/27 05:31:20;;;;;;;;;;;4.50;92.00;;;;;;5046796;28;19909;-74
2022/03/27 05:33:46;;;;;;;;;;;4.60;91.80;;;;;;5048088;28;19909;-74
2022/03/27 05:36:11;;;;;;;;;;;4.60;91.60;;;;;;5063637;28;19924;-75
2022/03/27 05:38:38;;;;;;;;;;;4.60;91.40;;;;;;5065770;28;20200;-75
2022/03/27 05:41:04;;;;;;;;;;;4.70;91.30;;;;;;5064171;28;19916;-75
2022/03/27 05:43:30;;;;;;;;;;;4.70;91.10;;;;;;5050029;28;19944;-74
2022/03/27 05:45:56;;;;;;;;;;;4.80;91.00;;;;;;5066568;28;19909;-74
2022/03/27 05:48:21;;;;;;;;;;;4.70;91.20;;;;;;5066893;28;19919;-76
2022/03/27 05:50:47;;;;;;;;;;;4.80;91.30;;;;;;5064664;28;19915;-74
2022/03/27 05:53:13;;;;;;;;;;;4.70;91.30;;;;;;5037563;28;20159;-74
2022/03/27 05:55:39;;;;;;;;;;;4.70;91.40;;;;;;5060273;28;20628;-74
2022/03/27 05:58:05;;;;;;;;;;;4.70;91.60;;;;;;5059799;28;19908;-73
2022/03/27 06:00:31;;;;;;;;;;;4.80;91.40;;;;;;5065151;28;19909;-73
2022/03/27 06:02:56;;;;;;;;;;;4.90;91.20;;;;;;5066387;28;19916;-74
2022/03/27 06:05:23;;;;;;;;;;;4.90;91.10;;;;;;5066377;28;19909;-73
2022/03/27 06:07:50;;;;;;;;;;;4.80;91.40;;;;;;5064444;28;19921;-73
2022/03/27 06:10:19;;;;;;;;;;;4.80;91.50;;;;;;5064924;28;19915;-73
2022/03/27 06:12:45;;;;;;;;;;;4.90;91.80;;;;;;5064415;28;20226;-73
2022/03/27 06:15:12;;;;;;;;;;;4.80;91.80;;;;;;5064489;28;19936;-74
2022/03/27 06:17:45;;;;;;;;;;;4.90;91.80;;;;;;5061899;28;19963;-73
2022/03/27 06:20:13;;;;;;;;;;;5.00;91.60;;;;;;5060939;28;19940;-73
2022/03/27 06:22:39;;;;;;;;;;;5.00;91.60;;;;;;5039843;28;19917;-73
2022/03/27 06:25:07;;;;;;;;;;;5.10;91.40;;;;;;5055965;28;19912;-73
2022/03/27 06:27:33;;;;;;;;;;;5.10;91.50;;;;;;5048008;28;19913;-73
2022/03/27 06:29:59;;;;;;;;;;;5.30;91.20;;;;;;5065803;28;20024;-73
2022/03/27 06:32:27;;;;;;;;;;;5.30;90.90;;;;;;5064911;28;20158;-74
2022/03/27 06:34:57;;;;;;;;;;;5.40;90.70;;;;;;5064313;28;19908;-74
2022/03/27 06:37:24;;;;;;;;;;;5.50;90.50;;;;;;5064875;28;20219;-74
2022/03/27 06:39:50;;;;;;;;;;;5.60;90.40;;;;;;5064147;28;20174;-74
2022/03/27 06:42:16;;;;;;;;;;;5.70;90.10;;;;;;5063647;28;19908;-74
2022/03/27 06:44:41;;;;;;;;;;;5.70;89.80;;;;;;5065077;28;19932;-74
2022/03/27 06:47:08;;;;;;;;;;;5.80;90.00;;;;;;5062329;28;19932;-74
2022/03/27 06:49:34;;;;;;;;;;;5.90;89.70;;;;;;5064839;28;19955;-74
2022/03/27 06:52:00;;;;;;;;;;;6.00;89.50;;;;;;5064579;28;19908;-74
2022/03/27 06:54:26;;;;;;;;;;;6.10;89.30;;;;;;5063846;28;19946;-74
2022/03/27 06:56:52;;;;;;;;;;;6.20;89.70;;;;;;5063240;28;19971;-75
2022/03/27 06:59:18;;;;;;;;;;;6.20;89.40;;;;;;5063073;28;19931;-74
2022/03/27 07:04:28;;;;;;;;;;;6.40;89.40;;;;;;5064833;28;19947;-74
2022/03/27 07:06:53;;;;;;;;;;;6.50;89.10;;;;;;5063103;28;19920;-75
2022/03/27 07:09:19;;;;;;;;;;;6.50;88.70;;;;;;5063018;28;19940;-75
2022/03/27 07:11:46;;;;;;;;;;;6.60;88.30;;;;;;5063950;28;20107;-75
2022/03/27 07:14:12;;;;;;;;;;;6.70;88.20;;;;;;5064317;28;19945;-74
2022/03/27 07:16:39;;;;;;;;;;;6.60;88.20;;;;;;5055365;28;19909;-74
2022/03/27 07:19:04;;;;;;;;;;;6.70;88.10;;;;;;5055381;28;19909;-74
2022/03/27 07:21:30;;;;;;;;;;;6.80;88.00;;;;;;5054380;28;20093;-68
2022/03/27 07:23:56;;;;;;;;;;;6.80;87.70;;;;;;5062153;28;20150;-68
2022/03/27 07:26:22;;;;;;;;;;;6.90;87.40;;;;;;5062696;28;20010;-71
2022/03/27 07:28:48;;;;;;;;;;;6.90;87.50;;;;;;5078259;28;19971;-71
2022/03/27 07:31:13;;;;;;;;;;;7.00;87.40;;;;;;5062683;28;20093;-72
2022/03/27 07:33:39;;;;;;;;;;;7.10;87.10;;;;;;5063007;28;19987;-71
2022/03/27 07:36:05;;;;;;;;;;;7.20;86.50;;;;;;5062955;28;19920;-71
2022/03/27 07:38:31;;;;;;;;;;;7.40;86.20;;;;;;5062732;28;19912;-69
2022/03/27 07:40:59;;;;;;;;;;;7.40;86.90;;;;;;5062504;28;20294;-69
2022/03/27 07:43:25;;;;;;;;;;;7.50;87.20;;;;;;5061616;28;19967;-69
2022/03/27 07:45:51;;;;;;;;;;;7.60;87.40;;;;;;5060815;28;19909;-69
2022/03/27 07:48:16;;;;;;;;;;;7.70;87.40;;;;;;5062554;28;19919;-69
2022/03/27 07:50:42;;;;;;;;;;;7.80;87.50;;;;;;5061175;28;19909;-72
2022/03/27 07:53:08;;;;;;;;;;;7.90;87.60;;;;;;5062275;28;19938;-71
2022/03/27 07:55:34;;;;;;;;;;;8.10;87.50;;;;;;5061442;28;19916;-71
2022/03/27 07:58:00;;;;;;;;;;;8.20;87.20;;;;;;5061724;28;19909;-71
2022/03/27 08:00:27;;;;;;;;;;;8.30;87.10;;;;;;5062185;28;19944;-71
2022/03/27 08:02:53;;;;;;;;;;;8.50;86.90;;;;;;5060806;28;19912;-71
2022/03/27 08:05:19;;;;;;;;;;;8.60;87.10;;;;;;5060844;28;19924;-71
2022/03/27 08:07:45;;;;;;;;;;;8.70;86.70;;;;;;5060950;28;20165;-73
2022/03/27 08:10:13;;;;;;;;;;;9.00;87.20;;;;;;5060701;28;20483;-74
2022/03/27 08:12:38;;;;;;;;;;;9.20;86.90;;;;;;5060359;28;20188;-73
2022/03/27 08:15:05;;;;;;;;;;;9.30;87.40;;;;;;5062083;28;19939;-74
2022/03/27 08:17:30;;;;;;;;;;;9.30;87.00;;;;;;5059931;28;19940;-70
2022/03/27 08:19:56;;;;;;;;;;;9.60;87.10;;;;;;5062326;28;20218;-70
2022/03/27 08:22:24;;;;;;;;;;;9.80;87.10;;;;;;5062024;28;19909;-70
2022/03/27 08:24:50;;;;;;;;;;;9.90;85.90;;;;;;5062258;28;20200;-70
2022/03/27 08:27:15;;;;;;;;;;;10.00;85.70;;;;;;5061814;28;19959;-70
2022/03/27 08:29:42;;;;;;;;;;;10.00;85.40;;;;;;5060700;28;20246;-70
2022/03/27 08:32:12;;;;;;;;;;;10.10;85.20;;;;;;5061994;28;19924;-70
2022/03/27 08:34:39;;;;;;;;;;;10.20;85.10;;;;;;5056913;28;19916;-70
2022/03/27 08:37:08;;;;;;;;;;;10.40;85.30;;;;;;5051765;28;19913;-71
2022/03/27 08:39:34;;;;;;;;;;;10.60;84.80;;;;;;5049086;28;19920;-71
2022/03/27 08:41:59;;;;;;;;;;;10.80;84.80;;;;;;5071739;28;19913;-71
2022/03/27 08:44:26;;;;;;;;;;;10.90;83.90;;;;;;5062207;28;19924;-71
2022/03/27 08:46:53;;;;;;;;;;;11.00;83.10;;;;;;5058698;28;19979;-71
2022/03/27 08:49:47;;;;;;;;;;;11.10;83.20;;;;;;5061741;28;19924;-72
2022/03/27 08:52:23;;;;;;;;;;;11.30;83.70;;;;;;5061670;28;19909;-72
2022/03/27 08:55:03;;;;;;;;;;;11.50;82.80;;;;;;5061351;28;19917;-72
2022/03/27 08:57:57;;;;;;;;;;;11.60;82.60;;;;;;5078874;28;19923;-72
2022/03/27 09:00:25;;;;;;;;;;;11.80;81.60;;;;;;5061833;28;20386;-71
2022/03/27 09:02:51;;;;;;;;;;;12.00;80.40;;;;;;5042189;28;19948;-70
2022/03/27 09:05:17;;;;;;;;;;;12.00;80.00;;;;;;5061713;28;19940;-73
2022/03/27 09:07:42;;;;;;;;;;;12.30;79.90;;;;;;5061556;28;19913;-73
2022/03/27 09:10:09;;;;;;;;;;;12.50;79.10;;;;;;5062579;28;19952;-73
2022/03/27 09:12:35;;;;;;;;;;;12.80;77.90;;;;;;5047683;28;19913;-74
2022/03/27 09:15:02;;;;;;;;;;;13.10;77.80;;;;;;5065792;28;19994;-74
2022/03/27 09:17:28;;;;;;;;;;;13.10;77.20;;;;;;5053089;28;19909;-73
2022/03/27 09:19:53;;;;;;;;;;;13.20;77.60;;;;;;5045653;28;19964;-73
2022/03/27 09:22:28;;;;;;;;;;;13.30;76.50;;;;;;5045103;28;19909;-73
2022/03/27 09:24:57;;;;;;;;;;;13.40;76.30;;;;;;5028620;28;19924;-73
2022/03/27 09:27:39;;;;;;;;;;;13.60;77.30;;;;;;5063784;28;19921;-75
2022/03/27 09:30:09;;;;;;;;;;;13.90;75.40;;;;;;5048895;28;19909;-74
2022/03/27 09:32:39;;;;;;;;;;;14.20;75.60;;;;;;5047031;28;19920;-73
2022/03/27 09:35:13;;;;;;;;;;;14.50;74.10;;;;;;5064035;28;19916;-75
2022/03/27 09:37:41;;;;;;;;;;;14.70;74.60;;;;;;5048099;28;19916;-74
2022/03/27 09:40:08;;;;;;;;;;;14.80;74.80;;;;;;5065248;28;19908;-69
2022/03/27 09:42:36;;;;;;;;;;;15.00;73.30;;;;;;5064524;28;20142;-70
2022/03/27 09:45:19;;;;;;;;;;;15.10;72.70;;;;;;5064996;28;19908;-76
2022/03/27 09:47:49;;;;;;;;;;;15.30;71.90;;;;;;5062720;28;19913;-72
2022/03/27 09:50:51;;;;;;;;;;;15.50;70.70;;;;;;5063884;28;19909;-71
2022/03/27 09:53:35;;;;;;;;;;;15.60;70.20;;;;;;4984153;28;20297;-70
2022/03/27 09:56:01;;;;;;;;;;;15.70;69.20;;;;;;5060691;28;20134;-75
2022/03/27 09:58:45;;;;;;;;;;;15.80;70.40;;;;;;5066069;28;19923;-75
2022/03/27 10:01:14;;;;;;;;;;;15.90;71.40;;;;;;5065014;28;19909;-74
2022/03/27 10:04:04;;;;;;;;;;;16.00;67.50;;;;;;5063105;28;19916;-72
2022/03/27 10:06:32;;;;;;;;;;;16.10;66.40;;;;;;5060769;28;19932;-71
2022/03/27 10:08:59;;;;;;;;;;;16.20;66.30;;;;;;5056588;28;20245;-71
2022/03/27 10:11:24;;;;;;;;;;;16.30;66.70;;;;;;5056033;28;19939;-70
2022/03/27 10:13:52;;;;;;;;;;;16.40;67.00;;;;;;5042870;28;20204;-71
2022/03/27 10:16:23;;;;;;;;;;;16.40;66.70;;;;;;5052806;28;19909;-71
2022/03/27 10:18:51;;;;;;;;;;;16.70;64.10;;;;;;5043718;28;19924;-70
2022/03/27 10:21:17;;;;;;;;;;;16.90;62.80;;;;;;5042770;28;19948;-70
2022/03/27 10:23:43;;;;;;;;;;;17.00;62.70;;;;;;5044432;28;20204;-69
2022/03/27 10:26:08;;;;;;;;;;;17.20;61.10;;;;;;5051026;28;19917;-69
2022/03/27 10:28:34;;;;;;;;;;;17.30;61.40;;;;;;5064063;28;19920;-69
2022/03/27 10:31:00;;;;;;;;;;;17.40;58.40;;;;;;5064034;28;20332;-69
2022/03/27 10:33:27;;;;;;;;;;;17.50;59.30;;;;;;5062244;28;19967;-70
2022/03/27 10:36:17;;;;;;;;;;;17.60;61.20;;;;;;5053233;28;19917;-69
2022/03/27 10:38:48;;;;;;;;;;;17.70;58.70;;;;;;5053861;28;19913;-69
2022/03/27 10:41:36;;;;;;;;;;;17.80;59.30;;;;;;5050183;28;19943;-69
2022/03/27 10:44:36;;;;;;;;;;;17.90;59.40;;;;;;5044152;28;19915;-70
2022/03/27 10:47:12;;;;;;;;;;;18.00;55.80;;;;;;5044587;28;19917;-70
2022/03/27 10:49:38;;;;;;;;;;;17.90;56.50;;;;;;5059637;28;19910;-67
2022/03/27 10:52:05;;;;;;;;;;;18.00;54.60;;;;;;5060077;28;20180;-68
2022/03/27 10:54:30;;;;;;;;;;;18.20;54.80;;;;;;5055540;28;19908;-69
2022/03/27 10:56:57;;;;;;;;;;;18.40;54.80;;;;;;5062111;28;19915;-68
2022/03/27 10:59:24;;;;;;;;;;;18.60;54.80;;;;;;5037584;28;19916;-69
2022/03/27 11:01:58;;;;;;;;;;;18.80;53.50;;;;;;5059630;28;19959;-68
2022/03/27 11:04:41;;;;;;;;;;;19.00;53.70;;;;;;5053509;28;20240;-68
2022/03/27 11:07:16;;;;;;;;;;;19.20;54.40;;;;;;5055803;28;19913;-68
2022/03/27 11:09:45;;;;;;;;;;;19.40;51.00;;;;;;5051609;28;19917;-68
2022/03/27 11:12:23;;;;;;;;;;;19.50;51.50;;;;;;5059528;28;19944;-69
2022/03/27 11:14:53;;;;;;;;;;;19.70;51.00;;;;;;5063777;28;20161;-69
2022/03/27 11:17:37;;;;;;;;;;;20.00;50.00;;;;;;5063197;28;19962;-69
2022/03/27 11:20:33;;;;;;;;;;;20.40;49.30;;;;;;5043278;28;19909;-69
2022/03/27 11:22:59;;;;;;;;;;;20.70;48.20;;;;;;5042089;28;19924;-69
2022/03/27 11:25:37;;;;;;;;;;;21.00;46.40;;;;;;5044871;28;19909;-69
2022/03/27 11:28:08;;;;;;;;;;;21.00;46.80;;;;;;5063213;28;19917;-68
2022/03/27 11:30:40;;;;;;;;;;;21.10;47.10;;;;;;5063327;28;19935;-64
2022/03/27 11:33:16;;;;;;;;;;;21.40;47.80;;;;;;5062367;28;19923;-65
2022/03/27 11:36:01;;;;;;;;;;;21.80;47.40;;;;;;5063239;28;19916;-64
2022/03/27 11:38:30;;;;;;;;;;;22.30;45.90;;;;;;5062847;28;19920;-68
2022/03/27 11:40:55;;;;;;;;;;;23.00;44.40;;;;;;5062918;28;20416;-70
2022/03/27 11:43:34;;;;;;;;;;;23.30;43.10;;;;;;5053456;28;19913;-67
2022/03/27 11:46:00;;;;;;;;;;;23.80;42.60;;;;;;5051843;28;20223;-67
2022/03/27 11:48:26;;;;;;;;;;;24.60;40.90;;;;;;5051490;28;19916;-66
2022/03/27 11:50:54;;;;;;;;;;;25.00;40.00;;;;;;5051654;28;19947;-67
2022/03/27 11:53:34;;;;;;;;;;;26.10;39.30;;;;;;5051241;28;20319;-68
2022/03/27 11:56:10;;;;;;;;;;;26.80;37.10;;;;;;5048963;28;19917;-70
2022/03/27 11:58:36;;;;;;;;;;;27.90;34.80;;;;;;5058675;28;19944;-70
2022/03/27 12:01:03;;;;;;;;;;;29.00;33.50;;;;;;5052533;28;19970;-69
2022/03/27 12:03:28;;;;;;;;;;;29.90;32.50;;;;;;5061580;28;19917;-69
2022/03/27 12:05:54;;;;;;;;;;;31.10;30.70;;;;;;5061228;28;20119;-69
2022/03/27 12:08:20;;;;;;;;;;;31.90;30.00;;;;;;5044540;28;19923;-69
2022/03/27 12:10:57;;;;;;;;;;;33.70;28.60;;;;;;5044175;28;19909;-66
2022/03/27 12:13:22;;;;;;;;;;;33.40;27.60;;;;;;5062598;28;20199;-69
2022/03/27 12:15:52;;;;;;;;;;;32.10;28.70;;;;;;5062512;28;19917;-70
2022/03/27 12:18:40;;;;;;;;;;;31.20;29.10;;;;;;5062167;28;19913;-70
2022/03/27 12:21:06;;;;;;;;;;;30.40;29.90;;;;;;5062243;28;19954;-70
2022/03/27 12:23:35;;;;;;;;;;;31.10;29.80;;;;;;5062464;28;20015;-70
2022/03/27 12:26:02;;;;;;;;;;;31.80;29.10;;;;;;5061525;28;19983;-70
2022/03/27 12:31:25;;;;;;;;;;;31.00;29.20;;;;;;5059973;28;20106;-70
2022/03/27 12:33:52;;;;;;;;;;;31.30;29.30;;;;;;5062238;28;19924;-69
2022/03/27 12:36:18;;;;;;;;;;;30.80;29.10;;;;;;5061472;28;19909;-69
2022/03/27 12:38:44;;;;;;;;;;;30.20;29.60;;;;;;5062140;28;19928;-68
2022/03/27 12:41:11;;;;;;;;;;;30.90;29.50;;;;;;5061613;28;19909;-68
2022/03/27 12:43:56;;;;;;;;;;;32.80;28.10;;;;;;5060802;28;20203;-68
2022/03/27 12:46:23;;;;;;;;;;;35.00;27.00;;;;;;5066254;28;19932;-68
2022/03/27 12:48:57;;;;;;;;;;;35.90;26.20;;;;;;5066241;28;19948;-68
2022/03/27 12:51:23;;;;;;;;;;;35.80;25.80;;;;;;5065871;28;20230;-68
2022/03/27 12:54:08;;;;;;;;;;;37.00;25.50;;;;;;5066118;28;19980;-68
2022/03/27 12:56:54;;;;;;;;;;;38.40;25.10;;;;;;5065776;28;19961;-68
2022/03/27 12:59:21;;;;;;;;;;;39.50;24.70;;;;;;5066354;28;20015;-68
2022/03/27 13:01:47;;;;;;;;;;;39.60;24.30;;;;;;5063760;28;19908;-69
2022/03/27 13:04:13;;;;;;;;;;;39.80;23.90;;;;;;5057444;28;19919;-68
2022/03/27 13:07:05;;;;;;;;;;;38.00;24.10;;;;;;5055306;28;22106;-68
2022/03/27 13:09:31;;;;;;;;;;;36.20;25.40;;;;;;5052609;28;19909;-68
2022/03/27 13:11:57;;;;;;;;;;;36.90;25.50;;;;;;5056040;28;19920;-69
2022/03/27 13:14:23;;;;;;;;;;;37.90;24.80;;;;;;5054978;28;19909;-69
2022/03/27 13:16:58;;;;;;;;;;;38.40;24.20;;;;;;5055300;28;19916;-69
2022/03/27 13:19:43;;;;;;;;;;;39.40;24.00;;;;;;5056579;28;19949;-69
2022/03/27 13:22:09;;;;;;;;;;;38.90;23.40;;;;;;5047053;28;19917;-69
2022/03/27 13:24:35;;;;;;;;;;;39.30;23.70;;;;;;5045438;28;19916;-69
2022/03/27 13:27:02;;;;;;;;;;;40.30;23.70;;;;;;5059029;28;19920;-69
2022/03/27 13:29:28;;;;;;;;;;;41.30;23.20;;;;;;5065411;28;19908;-69
2022/03/27 13:31:54;;;;;;;;;;;40.40;23.30;;;;;;5063940;28;20190;-68
2022/03/27 13:34:21;;;;;;;;;;;40.90;23.00;;;;;;5065189;28;19919;-68
2022/03/27 13:36:49;;;;;;;;;;;40.50;22.90;;;;;;5065247;28;19987;-68
2022/03/27 13:39:15;;;;;;;;;;;40.00;23.30;;;;;;5065366;28;19931;-69
2022/03/27 13:44:26;;;;;;;;;;;40.20;23.20;;;;;;5065060;28;19955;-69
2022/03/27 13:46:52;;;;;;;;;;;40.20;23.10;;;;;;5065093;28;19920;-69
2022/03/27 13:49:18;;;;;;;;;;;40.20;23.20;;;;;;5065526;28;20115;-69
2022/03/27 13:51:44;;;;;;;;;;;39.60;23.70;;;;;;5065083;28;19924;-69
2022/03/27 13:54:10;;;;;;;;;;;39.90;23.60;;;;;;5066093;28;20181;-69
2022/03/27 13:56:40;;;;;;;;;;;40.00;23.30;;;;;;5064191;28;19909;-69
2022/03/27 13:59:10;;;;;;;;;;;39.90;23.50;;;;;;5065381;28;19940;-70
2022/03/27 14:01:36;;;;;;;;;;;40.30;22.90;;;;;;5062025;28;19916;-70
2022/03/27 14:04:07;;;;;;;;;;;39.30;23.40;;;;;;5065079;28;19923;-70
2022/03/27 14:06:34;;;;;;;;;;;39.30;23.60;;;;;;5065182;28;19909;-69
2022/03/27 14:09:00;;;;;;;;;;;39.70;23.40;;;;;;5097128;28;20223;-69
2022/03/27 14:11:26;;;;;;;;;;;39.60;23.60;;;;;;5064375;28;19924;-70
2022/03/27 14:13:51;;;;;;;;;;;39.60;23.60;;;;;;5064574;28;19909;-69
2022/03/27 14:16:17;;;;;;;;;;;39.90;23.40;;;;;;5064482;28;19965;-68
2022/03/27 14:18:43;;;;;;;;;;;40.90;23.00;;;;;;5064305;28;19919;-69
2022/03/27 14:21:09;;;;;;;;;;;40.00;23.10;;;;;;5062935;28;20002;-70
2022/03/27 14:23:35;;;;;;;;;;;39.80;23.30;;;;;;5064375;28;19909;-70
2022/03/27 14:26:01;;;;;;;;;;;39.70;23.00;;;;;;5063613;28;20119;-70
2022/03/27 14:28:30;;;;;;;;;;;39.30;23.60;;;;;;5064329;28;19912;-70
2022/03/27 14:30:56;;;;;;;;;;;39.10;23.40;;;;;;5063485;28;19915;-70
2022/03/27 14:33:23;;;;;;;;;;;39.20;23.50;;;;;;5063670;28;19909;-70
2022/03/27 14:35:50;;;;;;;;;;;40.30;23.10;;;;;;5064931;28;19987;-71
2022/03/27 14:38:15;;;;;;;;;;;39.70;23.40;;;;;;5064465;28;19916;-70